Time;durP1;ratioP1;P1;durP2;ratioP2;P2;SDS_P1;SDS_P2;PMS_P1;PMS_P2;Temp;Humidity;BMP_temperature;BMP_pressure;BME280_temperature;BME280_humidity;BME280_pressure;Samples;Min_cycle;Max_cycle;Signal;HPM_P1;HPM_P2
2022/12/28 00:01:05;;;;;;;2.20;1.33;;;6.80;99.90;;;;;;5074849;28;20497;-78
2022/12/28 00:03:31;;;;;;;3.90;1.30;;;6.90;99.90;;;;;;5075784;28;20456;-78
2022/12/28 00:05:56;;;;;;;3.10;1.27;;;6.90;99.90;;;;;;5057054;28;20436;-78
2022/12/28 00:08:22;;;;;;;1.60;1.23;;;7.00;99.90;;;;;;5068864;28;20175;-78
2022/12/28 00:10:47;;;;;;;1.80;1.10;;;7.00;99.90;;;;;;5068745;28;20182;-78
2022/12/28 00:13:13;;;;;;;4.13;1.20;;;7.10;99.90;;;;;;5075371;28;20174;-78
2022/12/28 00:15:38;;;;;;;2.80;1.17;;;7.10;99.90;;;;;;5075320;28;20194;-78
2022/12/28 00:18:04;;;;;;;2.37;1.00;;;7.10;99.90;;;;;;5057162;28;20178;-78
2022/12/28 00:20:30;;;;;;;3.40;1.70;;;7.10;99.90;;;;;;5075244;28;20198;-78
2022/12/28 00:22:55;;;;;;;3.77;1.80;;;7.20;99.90;;;;;;5075376;28;20663;-78
2022/12/28 00:25:21;;;;;;;6.63;1.30;;;7.30;99.90;;;;;;5056825;28;20562;-78
2022/12/28 00:27:46;;;;;;;1.87;0.93;;;7.20;99.90;;;;;;5057097;28;20166;-78
2022/12/28 00:30:12;;;;;;;1.77;1.10;;;7.30;99.90;;;;;;5056921;28;20174;-78
2022/12/28 00:32:37;;;;;;;7.27;1.47;;;7.40;99.90;;;;;;5074734;28;20177;-78
2022/12/28 00:35:03;;;;;;;3.00;1.30;;;7.40;99.90;;;;;;5073397;28;20194;-78
2022/12/28 00:37:29;;;;;;;4.53;1.17;;;7.40;99.90;;;;;;5074611;28;20193;-78
2022/12/28 00:39:54;;;;;;;2.57;1.20;;;7.40;99.90;;;;;;5074499;28;20404;-78
2022/12/28 00:42:20;;;;;;;2.30;1.10;;;7.30;99.90;;;;;;5056787;28;20170;-78
2022/12/28 00:44:45;;;;;;;3.50;1.20;;;7.30;99.90;;;;;;5074060;28;20253;-78
2022/12/28 00:47:11;;;;;;;2.80;1.10;;;7.30;99.90;;;;;;5074785;28;20228;-78
2022/12/28 00:49:36;;;;;;;3.63;1.63;;;7.40;99.90;;;;;;5056632;28;20216;-78
2022/12/28 00:52:02;;;;;;;3.40;1.10;;;7.30;99.90;;;;;;5074663;28;20170;-78
2022/12/28 00:54:28;;;;;;;2.53;1.40;;;7.30;99.90;;;;;;5056541;28;20174;-78
2022/12/28 00:56:53;;;;;;;4.97;1.57;;;7.30;99.90;;;;;;5074652;28;20697;-78
2022/12/28 00:59:19;;;;;;;4.00;1.20;;;7.30;99.90;;;;;;5074646;28;20166;-78
2022/12/28 01:01:44;;;;;;;3.63;1.30;;;7.30;99.90;;;;;;5074538;28;20227;-78
2022/12/28 01:04:10;;;;;;;1.97;1.13;;;7.40;99.90;;;;;;5056275;28;20205;-79
2022/12/28 01:06:35;;;;;;;2.03;1.23;;;7.40;99.90;;;;;;5074221;28;20212;-78
2022/12/28 01:09:01;;;;;;;2.07;1.03;;;7.50;99.90;;;;;;5074295;28;20173;-78
2022/12/28 01:11:29;;;;;;;4.33;1.30;;;7.60;99.90;;;;;;5074532;28;20717;-78
2022/12/28 01:13:58;;;;;;;2.60;1.23;;;7.60;99.90;;;;;;5074645;28;20170;-79
2022/12/28 01:16:26;;;;;;;2.20;1.20;;;7.60;99.90;;;;;;5074035;28;20442;-79
2022/12/28 01:18:55;;;;;;;1.20;0.97;;;7.70;99.90;;;;;;5072727;28;20412;-78
2022/12/28 01:21:23;;;;;;;4.93;1.90;;;7.70;99.90;;;;;;5056223;28;20405;-78
2022/12/28 01:23:52;;;;;;;2.40;1.50;;;7.60;99.90;;;;;;5074403;28;20451;-78
2022/12/28 01:26:17;;;;;;;1.60;1.30;;;7.70;99.90;;;;;;5073617;28;20428;-78
2022/12/28 01:28:43;;;;;;;3.10;1.20;;;7.70;99.90;;;;;;5074338;28;20438;-79
2022/12/28 01:31:14;;;;;;;1.70;1.20;;;7.70;99.90;;;;;;5074161;28;20170;-78
2022/12/28 01:33:41;;;;;;;1.93;1.10;;;7.70;99.90;;;;;;5060440;28;20175;-78
2022/12/28 01:36:19;;;;;;;4.03;1.50;;;7.60;99.90;;;;;;5053455;28;20429;-78
2022/12/28 01:38:46;;;;;;;2.20;1.80;;;7.60;99.90;;;;;;5053807;28;20409;-78
2022/12/28 01:41:15;;;;;;;2.53;1.43;;;7.60;99.90;;;;;;5054147;28;20492;-78
2022/12/28 01:43:51;;;;;;;1.93;1.33;;;7.60;99.90;;;;;;5054048;28;20826;-78
2022/12/28 01:46:30;;;;;;;1.80;1.27;;;7.60;99.90;;;;;;5053663;28;20421;-78
2022/12/28 01:49:09;;;;;;;3.00;1.63;;;7.60;99.90;;;;;;5039692;28;20409;-78
2022/12/28 01:52:00;;;;;;;4.40;1.67;;;7.50;99.90;;;;;;5058101;28;20401;-78
2022/12/28 01:54:28;;;;;;;3.00;1.30;;;7.60;99.90;;;;;;5057723;28;20471;-78
2022/12/28 01:56:54;;;;;;;2.90;0.93;;;7.60;99.90;;;;;;5057661;28;20405;-79
2022/12/28 01:59:24;;;;;;;2.10;1.20;;;7.70;99.90;;;;;;5040150;28;20422;-79
2022/12/28 02:01:50;;;;;;;7.83;1.40;;;7.70;99.90;;;;;;5040154;28;20178;-78
2022/12/28 02:04:16;;;;;;;1.27;0.87;;;7.70;99.90;;;;;;5042719;28;20459;-78
2022/12/28 02:06:42;;;;;;;3.17;1.40;;;7.80;99.90;;;;;;5059753;28;20487;-78
2022/12/28 02:09:32;;;;;;;1.80;1.20;;;7.70;99.90;;;;;;5077533;28;20448;-78
2022/12/28 02:11:59;;;;;;;1.47;0.90;;;7.80;99.90;;;;;;5059487;28;20428;-78
2022/12/28 02:14:24;;;;;;;2.50;1.60;;;7.80;99.90;;;;;;5076746;28;20758;-79
2022/12/28 02:16:52;;;;;;;4.70;1.20;;;7.80;99.90;;;;;;5077405;28;20411;-78
2022/12/28 02:19:25;;;;;;;1.97;1.20;;;7.90;99.90;;;;;;5077310;28;20223;-77
2022/12/28 02:22:27;;;;;;;6.17;1.20;;;7.90;99.90;;;;;;5076942;28;20420;-78
2022/12/28 02:25:11;;;;;;;2.73;1.30;;;8.00;99.90;;;;;;5076308;28;20812;-78
2022/12/28 02:27:55;;;;;;;1.93;1.00;;;7.90;99.90;;;;;;5059042;28;20412;-78
2022/12/28 02:30:20;;;;;;;4.90;1.43;;;8.00;99.90;;;;;;5075391;28;20436;-78
2022/12/28 02:32:59;;;;;;;3.03;1.37;;;8.00;99.90;;;;;;5065732;28;20412;-78
2022/12/28 02:35:38;;;;;;;4.27;1.63;;;8.00;99.90;;;;;;5076310;28;20204;-78
2022/12/28 02:38:19;;;;;;;6.93;1.30;;;8.00;99.90;;;;;;5077662;28;20407;-78
2022/12/28 02:40:58;;;;;;;1.47;1.00;;;8.00;99.90;;;;;;5077070;28;20408;-78
2022/12/28 02:43:25;;;;;;;3.43;1.50;;;8.00;99.90;;;;;;5076568;28;20945;-78
2022/12/28 02:51:54;;;;;;;2.87;1.50;;;8.00;99.90;;;;;;5077081;28;20487;-78
2022/12/28 02:57:53;;;;;;;2.17;0.90;;;8.10;99.90;;;;;;5076045;28;20392;-78
2022/12/28 03:00:23;;;;;;;1.60;1.10;;;8.10;99.90;;;;;;5075941;28;20457;-78
2022/12/28 03:02:55;;;;;;;2.20;1.00;;;8.10;99.90;;;;;;5076092;28;20500;-79
2022/12/28 03:08:45;;;;;;;3.83;1.50;;;8.20;99.90;;;;;;5076512;28;20415;-78
2022/12/28 03:11:18;;;;;;;5.00;1.03;;;8.10;99.90;;;;;;5075768;28;20428;-78
2022/12/28 03:14:06;;;;;;;1.60;1.00;;;8.20;99.90;;;;;;5075853;28;20421;-78
2022/12/28 03:33:09;;;;;;;3.40;0.97;;;8.30;99.90;;;;;;5075821;28;20399;-78
2022/12/28 03:35:48;;;;;;;1.60;1.03;;;8.30;99.90;;;;;;5075228;28;20481;-78
2022/12/28 03:38:26;;;;;;;1.60;1.00;;;8.40;99.90;;;;;;5075362;28;20411;-79
2022/12/28 03:40:59;;;;;;;1.30;0.90;;;8.40;99.90;;;;;;5075518;28;20870;-78
2022/12/28 03:43:40;;;;;;;2.43;1.13;;;8.40;99.90;;;;;;5075302;28;20459;-78
2022/12/28 03:46:18;;;;;;;2.53;1.03;;;8.50;99.90;;;;;;5075519;28;20913;-78
2022/12/28 03:48:44;;;;;;;2.00;0.90;;;8.60;99.90;;;;;;5057693;28;20412;-78
2022/12/28 03:51:13;;;;;;;1.57;1.07;;;8.60;99.90;;;;;;5074915;28;20508;-78
2022/12/28 03:53:42;;;;;;;1.53;1.03;;;8.50;99.90;;;;;;5075230;28;20890;-78
2022/12/28 03:56:13;;;;;;;3.03;1.47;;;8.60;99.90;;;;;;5074743;28;20520;-78
2022/12/28 03:58:39;;;;;;;1.90;0.90;;;8.70;99.90;;;;;;5057102;28;20424;-78
2022/12/28 04:01:05;;;;;;;2.37;0.97;;;8.70;99.90;;;;;;5057381;28;20428;-78
2022/12/28 04:03:31;;;;;;;2.23;1.10;;;8.80;99.90;;;;;;5075057;28;20189;-78
2022/12/28 04:05:56;;;;;;;1.60;1.20;;;8.80;99.90;;;;;;5074554;28;20933;-78
2022/12/28 04:08:22;;;;;;;2.10;1.10;;;8.80;99.90;;;;;;5074925;28;20518;-78
2022/12/28 04:10:48;;;;;;;1.77;1.20;;;8.80;99.90;;;;;;5073696;28;20313;-78
2022/12/28 04:13:14;;;;;;;4.70;0.90;;;8.90;99.90;;;;;;5074889;28;20436;-78
2022/12/28 04:15:40;;;;;;;3.60;1.47;;;9.00;99.90;;;;;;5074306;28;20220;-78
2022/12/28 04:18:05;;;;;;;7.63;1.27;;;9.00;99.90;;;;;;5074587;28;20209;-78
2022/12/28 04:20:31;;;;;;;1.73;1.00;;;9.10;99.90;;;;;;5074627;28;20197;-78
2022/12/28 04:22:56;;;;;;;1.70;0.97;;;9.10;99.90;;;;;;5080950;28;20211;-77
2022/12/28 04:25:22;;;;;;;5.53;1.10;;;9.20;99.90;;;;;;5080272;28;20190;-78
2022/12/28 04:27:48;;;;;;;2.43;1.23;;;9.20;99.90;;;;;;5080602;28;20158;-77
2022/12/28 04:30:13;;;;;;;1.50;1.00;;;9.20;99.90;;;;;;5064020;28;20220;-77
2022/12/28 04:32:39;;;;;;;2.80;1.20;;;9.20;99.90;;;;;;5063672;28;20166;-78
2022/12/28 04:35:05;;;;;;;1.50;1.17;;;9.30;99.90;;;;;;5063207;28;20258;-78
2022/12/28 04:37:30;;;;;;;1.27;0.90;;;9.20;99.90;;;;;;5062746;28;20236;-77
2022/12/28 04:39:56;;;;;;;1.50;1.13;;;9.30;99.90;;;;;;5063451;28;20413;-77
2022/12/28 04:42:22;;;;;;;1.33;1.00;;;9.30;99.90;;;;;;5062642;28;20177;-77
2022/12/28 04:44:47;;;;;;;2.07;1.60;;;9.40;99.90;;;;;;5062899;28;20210;-77
2022/12/28 04:47:13;;;;;;;2.80;1.60;;;9.40;99.90;;;;;;5063475;28;20174;-77
2022/12/28 04:49:38;;;;;;;2.47;1.00;;;9.30;99.90;;;;;;5063164;28;20177;-78
2022/12/28 04:52:04;;;;;;;4.23;1.10;;;9.30;99.90;;;;;;5061519;28;20166;-77
2022/12/28 04:54:29;;;;;;;3.77;2.00;;;9.30;99.90;;;;;;5079625;28;20197;-77
2022/12/28 04:56:55;;;;;;;3.60;3.30;;;9.40;99.90;;;;;;5080482;28;20229;-78
2022/12/28 04:59:21;;;;;;;5.10;1.03;;;9.40;99.90;;;;;;5080568;28;20319;-77
2022/12/28 05:01:46;;;;;;;1.50;0.93;;;9.40;99.90;;;;;;5062410;28;20264;-77
2022/12/28 05:04:12;;;;;;;2.80;1.03;;;9.40;99.90;;;;;;5078511;28;20213;-75
2022/12/28 05:06:37;;;;;;;2.13;1.50;;;9.50;99.90;;;;;;5078878;28;20192;-77
2022/12/28 05:09:03;;;;;;;1.63;1.00;;;9.60;99.90;;;;;;5079669;28;20174;-77
2022/12/28 05:11:29;;;;;;;1.80;0.80;;;9.60;99.90;;;;;;5060894;28;20222;-78
2022/12/28 05:13:55;;;;;;;1.10;0.77;;;9.70;99.90;;;;;;5061892;28;20170;-77
2022/12/28 05:16:23;;;;;;;2.27;0.97;;;9.60;99.90;;;;;;5061338;28;20436;-77
2022/12/28 05:18:49;;;;;;;2.53;1.20;;;9.70;99.90;;;;;;5062117;28;20810;-77
2022/12/28 05:21:19;;;;;;;2.03;0.90;;;9.70;99.90;;;;;;5062863;28;20932;-77
2022/12/28 05:23:46;;;;;;;1.33;0.90;;;9.60;99.90;;;;;;5065185;28;20455;-77
2022/12/28 05:26:14;;;;;;;2.30;1.23;;;9.60;99.90;;;;;;5082290;28;20424;-77
2022/12/28 05:28:40;;;;;;;2.03;0.90;;;9.70;99.90;;;;;;5084021;28;20419;-77
2022/12/28 05:31:10;;;;;;;1.20;0.80;;;9.70;99.90;;;;;;5083874;28;20405;-77
2022/12/28 05:33:36;;;;;;;4.87;1.27;;;9.60;99.90;;;;;;5066231;28;20412;-77
2022/12/28 05:36:13;;;;;;;4.30;0.90;;;9.70;99.90;;;;;;5066110;28;20428;-77
2022/12/28 05:38:39;;;;;;;2.60;1.90;;;9.70;99.90;;;;;;5065887;28;20174;-78
2022/12/28 05:41:06;;;;;;;1.50;0.90;;;9.70;99.90;;;;;;5065895;28;20408;-77
2022/12/28 05:43:32;;;;;;;1.53;1.10;;;9.70;99.90;;;;;;5082657;28;20452;-78
2022/12/28 05:46:03;;;;;;;1.40;0.90;;;9.60;99.90;;;;;;5081972;28;20427;-78
2022/12/28 05:48:36;;;;;;;2.13;1.00;;;9.60;99.90;;;;;;5065702;28;20198;-77
2022/12/28 05:51:05;;;;;;;2.97;1.23;;;9.70;99.90;;;;;;5083412;28;20826;-78
2022/12/28 05:53:31;;;;;;;1.30;0.93;;;9.70;99.90;;;;;;5083212;28;20427;-78
2022/12/28 05:56:05;;;;;;;2.00;1.30;;;9.70;99.90;;;;;;5064757;28;20436;-77
2022/12/28 05:58:31;;;;;;;1.77;0.90;;;9.70;99.90;;;;;;5063735;28;20792;-77
2022/12/28 06:01:09;;;;;;;2.30;1.20;;;9.70;99.90;;;;;;5081255;28;20418;-78
2022/12/28 06:03:35;;;;;;;1.57;0.90;;;9.80;99.90;;;;;;5063478;28;20463;-77
2022/12/28 06:06:06;;;;;;;1.30;1.00;;;9.70;99.90;;;;;;5063611;28;20448;-77
2022/12/28 06:08:31;;;;;;;2.73;0.90;;;9.80;99.90;;;;;;5063748;28;20405;-77
2022/12/28 06:11:05;;;;;;;1.30;0.90;;;9.80;99.90;;;;;;5082104;28;20490;-77
2022/12/28 06:13:31;;;;;;;3.00;0.90;;;9.80;99.90;;;;;;5081826;28;20605;-77
2022/12/28 06:15:57;;;;;;;2.13;0.93;;;9.80;99.90;;;;;;5063775;28;20452;-77
2022/12/28 06:18:26;;;;;;;2.60;1.10;;;9.80;99.90;;;;;;5063919;28;20415;-78
2022/12/28 06:20:52;;;;;;;2.67;0.90;;;9.80;99.90;;;;;;5065606;28;20484;-77
2022/12/28 06:23:18;;;;;;;1.70;0.87;;;9.80;99.90;;;;;;5063919;28;20484;-77
2022/12/28 06:25:44;;;;;;;1.30;0.80;;;9.80;99.90;;;;;;5058653;28;20226;-75
2022/12/28 06:28:09;;;;;;;2.20;0.87;;;9.80;99.90;;;;;;5079601;28;20166;-78
2022/12/28 06:30:35;;;;;;;1.40;0.70;;;9.80;99.90;;;;;;5063305;28;20174;-78
2022/12/28 06:33:00;;;;;;;1.87;0.90;;;9.70;99.90;;;;;;5062872;28;20196;-77
2022/12/28 06:35:26;;;;;;;1.83;0.80;;;9.70;99.90;;;;;;5064058;28;20194;-77
2022/12/28 06:37:51;;;;;;;2.90;1.10;;;9.70;99.90;;;;;;5062208;28;20604;-76
2022/12/28 06:40:17;;;;;;;1.40;0.90;;;9.70;99.90;;;;;;5074978;28;20217;-78
2022/12/28 06:42:42;;;;;;;4.20;0.93;;;9.70;99.90;;;;;;5080846;28;20263;-78
2022/12/28 06:45:08;;;;;;;1.40;0.70;;;9.80;99.90;;;;;;5080976;28;20194;-77
2022/12/28 06:47:35;;;;;;;1.33;0.70;;;9.80;99.90;;;;;;5062960;28;20181;-77
2022/12/28 06:50:02;;;;;;;1.20;0.70;;;9.80;99.90;;;;;;5061415;28;20254;-76
2022/12/28 06:52:27;;;;;;;2.27;0.80;;;9.80;99.90;;;;;;5080264;28;20455;-77
2022/12/28 06:54:53;;;;;;;1.40;0.90;;;9.70;99.90;;;;;;5080807;28;20440;-77
2022/12/28 06:57:18;;;;;;;2.50;0.70;;;9.80;99.90;;;;;;5063192;28;20204;-77
2022/12/28 06:59:44;;;;;;;1.10;0.70;;;9.80;99.90;;;;;;5063508;28;20197;-77
2022/12/28 07:02:09;;;;;;;2.70;1.00;;;9.80;99.90;;;;;;5063752;28;20248;-77
2022/12/28 07:04:35;;;;;;;1.27;0.83;;;9.70;99.90;;;;;;5062564;28;20206;-77
2022/12/28 07:07:00;;;;;;;1.33;0.90;;;9.80;99.90;;;;;;5080783;28;20167;-77
2022/12/28 07:09:26;;;;;;;1.93;0.87;;;9.80;99.90;;;;;;5062942;28;20171;-77
2022/12/28 07:11:51;;;;;;;1.33;0.87;;;9.80;99.90;;;;;;5062586;28;20187;-79
2022/12/28 07:14:17;;;;;;;2.60;0.83;;;9.80;99.90;;;;;;5080091;28;20547;-77
2022/12/28 07:16:43;;;;;;;1.90;1.00;;;9.90;99.90;;;;;;5062690;28;20239;-77
2022/12/28 07:19:09;;;;;;;1.20;0.73;;;9.90;99.90;;;;;;5080532;28;20503;-77
2022/12/28 07:21:37;;;;;;;1.50;0.90;;;9.90;99.90;;;;;;5062154;28;20178;-77
2022/12/28 07:24:04;;;;;;;1.50;0.90;;;9.90;99.90;;;;;;5062071;28;20313;-77
2022/12/28 07:26:31;;;;;;;1.17;0.70;;;9.90;99.90;;;;;;5079463;28;20428;-78
2022/12/28 07:28:59;;;;;;;1.33;0.73;;;9.90;99.90;;;;;;5081288;28;20408;-77
2022/12/28 07:31:30;;;;;;;2.60;1.27;;;9.90;99.90;;;;;;5079434;28;20917;-78
2022/12/28 07:33:58;;;;;;;1.93;0.80;;;9.90;99.90;;;;;;5062401;28;20416;-77
2022/12/28 07:36:25;;;;;;;1.60;0.80;;;10.00;99.90;;;;;;5061828;28;20432;-78
2022/12/28 07:38:51;;;;;;;2.70;0.70;;;9.90;99.90;;;;;;5062441;28;20451;-77
2022/12/28 07:41:23;;;;;;;1.47;0.73;;;9.90;99.90;;;;;;5062424;28;20413;-78
2022/12/28 07:43:49;;;;;;;1.20;0.70;;;10.00;99.90;;;;;;5079222;28;20463;-78
2022/12/28 07:46:16;;;;;;;2.13;1.03;;;10.00;99.90;;;;;;5060553;28;20519;-77
2022/12/28 07:48:43;;;;;;;1.57;1.07;;;9.90;99.90;;;;;;5078361;28;20420;-77
2022/12/28 07:51:19;;;;;;;1.20;0.83;;;9.90;99.90;;;;;;5076892;28;20427;-77
2022/12/28 07:53:46;;;;;;;1.07;0.73;;;9.90;99.90;;;;;;5060749;28;20420;-77
2022/12/28 07:56:12;;;;;;;1.30;0.70;;;9.90;99.90;;;;;;5060106;28;20482;-78
2022/12/28 07:58:38;;;;;;;1.73;0.90;;;9.90;99.90;;;;;;5060569;28;20420;-77
2022/12/28 08:01:09;;;;;;;1.10;0.70;;;9.90;99.90;;;;;;5059132;28;20464;-77
2022/12/28 08:03:35;;;;;;;1.20;0.70;;;9.90;99.90;;;;;;5061066;28;20452;-77
2022/12/28 08:06:05;;;;;;;1.60;1.00;;;9.90;99.90;;;;;;5077441;28;20486;-77
2022/12/28 08:08:34;;;;;;;1.40;0.90;;;9.90;99.90;;;;;;5060004;28;20420;-77
2022/12/28 08:11:03;;;;;;;1.20;0.83;;;9.90;99.90;;;;;;5079010;28;20466;-77
2022/12/28 08:13:30;;;;;;;1.90;0.87;;;10.00;99.90;;;;;;5078730;28;20985;-77
2022/12/28 08:15:56;;;;;;;1.60;0.70;;;10.00;99.90;;;;;;5061332;28;20446;-78
2022/12/28 08:18:22;;;;;;;1.10;0.67;;;9.90;99.90;;;;;;5060712;28;20416;-77
2022/12/28 08:20:47;;;;;;;18.33;1.37;;;10.00;99.90;;;;;;5061407;28;20181;-78
2022/12/28 08:23:13;;;;;;;3.77;0.97;;;10.00;99.90;;;;;;5061697;28;20705;-78
2022/12/28 08:25:38;;;;;;;1.30;0.90;;;10.00;99.90;;;;;;5078404;28;20190;-78
2022/12/28 08:28:04;;;;;;;3.00;0.63;;;10.00;99.90;;;;;;5061540;28;20172;-77
2022/12/28 08:30:29;;;;;;;1.60;0.90;;;10.10;99.90;;;;;;5078737;28;20162;-78
2022/12/28 08:32:55;;;;;;;1.20;0.70;;;10.20;99.90;;;;;;5060383;28;20178;-78
2022/12/28 08:35:20;;;;;;;1.20;0.67;;;10.20;99.90;;;;;;5059734;28;20747;-77
2022/12/28 08:37:46;;;;;;;1.20;0.70;;;10.20;99.90;;;;;;5060409;28;20185;-77
2022/12/28 08:40:11;;;;;;;1.50;0.87;;;10.20;99.90;;;;;;5060829;28;20170;-78
2022/12/28 08:42:37;;;;;;;1.20;0.70;;;10.30;99.90;;;;;;5077577;28;20166;-78
2022/12/28 08:45:02;;;;;;;1.47;0.90;;;10.30;99.90;;;;;;5060198;28;20201;-77
2022/12/28 08:47:28;;;;;;;1.27;0.83;;;10.30;99.90;;;;;;5060676;28;20597;-78
2022/12/28 08:49:53;;;;;;;1.37;0.97;;;10.30;99.90;;;;;;5076969;28;20653;-77
2022/12/28 08:52:19;;;;;;;1.40;0.90;;;10.30;99.90;;;;;;5059364;28;20174;-78
2022/12/28 08:54:44;;;;;;;1.60;1.03;;;10.40;99.90;;;;;;5058880;28;20194;-78
2022/12/28 08:57:10;;;;;;;2.63;0.93;;;10.30;99.90;;;;;;5058881;28;20182;-78
2022/12/28 08:59:35;;;;;;;2.07;0.90;;;10.40;99.90;;;;;;5076948;28;20580;-77
2022/12/28 09:02:01;;;;;;;1.63;0.70;;;10.40;99.90;;;;;;5059257;28;20258;-78
2022/12/28 09:04:26;;;;;;;1.10;0.80;;;10.40;99.90;;;;;;5076971;28;20198;-77
2022/12/28 09:06:52;;;;;;;1.33;0.87;;;10.40;99.90;;;;;;5059403;28;20252;-77
2022/12/28 09:09:18;;;;;;;1.47;1.00;;;10.50;99.90;;;;;;5077151;28;20169;-78
2022/12/28 09:11:44;;;;;;;1.63;0.97;;;10.60;99.90;;;;;;5059488;28;20212;-78
2022/12/28 09:14:12;;;;;;;1.50;1.07;;;10.50;99.90;;;;;;5059085;28;20483;-77
2022/12/28 09:16:38;;;;;;;1.30;0.90;;;10.60;99.90;;;;;;5077013;28;20431;-78
2022/12/28 09:19:07;;;;;;;1.20;0.80;;;10.60;99.90;;;;;;5059113;28;20435;-78
2022/12/28 09:21:35;;;;;;;3.00;0.97;;;10.70;99.90;;;;;;5077260;28;20463;-78
2022/12/28 09:24:01;;;;;;;2.37;1.27;;;10.70;99.90;;;;;;5059337;28;20498;-77
2022/12/28 09:26:30;;;;;;;1.20;0.80;;;10.70;99.90;;;;;;5059535;28;20432;-77
2022/12/28 09:28:57;;;;;;;2.23;0.90;;;10.60;99.90;;;;;;5076970;28;20163;-78
2022/12/28 09:31:25;;;;;;;1.50;0.80;;;10.70;99.90;;;;;;5059255;28;20416;-77
2022/12/28 09:34:00;;;;;;;1.83;0.63;;;10.80;99.90;;;;;;5058973;28;20417;-78
2022/12/28 09:36:33;;;;;;;1.57;0.97;;;10.80;99.90;;;;;;5058838;28;20447;-77
2022/12/28 09:39:03;;;;;;;1.30;0.80;;;10.80;99.90;;;;;;5059158;28;20416;-78
2022/12/28 09:41:46;;;;;;;1.33;0.80;;;10.90;99.90;;;;;;5060209;28;20781;-77
2022/12/28 09:44:12;;;;;;;1.30;0.80;;;11.10;99.90;;;;;;5076259;28;20451;-77
2022/12/28 09:46:42;;;;;;;1.40;0.90;;;11.10;99.90;;;;;;5059388;28;20435;-77
2022/12/28 09:49:14;;;;;;;1.30;0.87;;;11.20;99.90;;;;;;5059141;28;20185;-78
2022/12/28 09:51:57;;;;;;;1.10;0.60;;;11.10;99.90;;;;;;5059244;28;20411;-78
2022/12/28 09:54:22;;;;;;;1.20;0.80;;;11.10;99.90;;;;;;5058517;28;20412;-77
2022/12/28 09:56:48;;;;;;;1.57;0.70;;;11.10;99.90;;;;;;5077920;28;20413;-77
2022/12/28 09:59:19;;;;;;;2.50;0.80;;;11.10;99.90;;;;;;5060573;28;20174;-78
2022/12/28 10:01:54;;;;;;;7.20;1.17;;;11.20;99.90;;;;;;5059588;28;20179;-78
2022/12/28 10:04:19;;;;;;;1.20;0.80;;;11.20;99.90;;;;;;5077239;28;20451;-78
2022/12/28 10:06:45;;;;;;;2.90;0.80;;;11.20;99.90;;;;;;5059640;28;20436;-78
2022/12/28 10:09:21;;;;;;;1.47;0.70;;;11.20;99.90;;;;;;5062136;28;20225;-78
2022/12/28 10:11:47;;;;;;;1.20;0.60;;;11.20;99.90;;;;;;5078947;28;20547;-76
2022/12/28 10:14:21;;;;;;;3.10;0.70;;;11.20;99.90;;;;;;5075731;28;20408;-75
2022/12/28 10:16:47;;;;;;;1.93;0.90;;;11.30;99.90;;;;;;5075006;28;20249;-74
2022/12/28 10:19:21;;;;;;;1.77;0.70;;;11.40;99.90;;;;;;5074942;28;20492;-75
2022/12/28 10:22:01;;;;;;;4.23;0.90;;;11.40;99.90;;;;;;5074868;28;20184;-75
2022/12/28 10:24:28;;;;;;;1.20;0.63;;;11.60;99.90;;;;;;5056538;28;20800;-75
2022/12/28 10:26:56;;;;;;;1.87;0.70;;;11.60;99.90;;;;;;5074850;28;20782;-75
2022/12/28 10:29:23;;;;;;;1.10;0.60;;;11.70;99.90;;;;;;5074713;28;20407;-75
2022/12/28 10:32:05;;;;;;;1.20;0.70;;;11.80;99.90;;;;;;5056542;28;20412;-76
2022/12/28 10:34:32;;;;;;;3.20;0.87;;;11.80;99.90;;;;;;5074230;28;20828;-75
2022/12/28 10:37:05;;;;;;;1.90;0.90;;;11.70;99.90;;;;;;5074639;28;20403;-75
2022/12/28 10:39:32;;;;;;;1.20;0.70;;;11.80;99.90;;;;;;5074657;28;20408;-75
2022/12/28 10:42:02;;;;;;;2.67;0.80;;;11.80;99.90;;;;;;5074589;28;20404;-75
2022/12/28 10:44:36;;;;;;;1.10;0.60;;;11.90;99.90;;;;;;5056057;28;20452;-75
2022/12/28 10:47:06;;;;;;;1.10;0.70;;;12.00;99.90;;;;;;5074119;28;20408;-76
2022/12/28 10:49:35;;;;;;;2.20;0.87;;;12.10;99.90;;;;;;5074117;28;20400;-75
2022/12/28 10:52:25;;;;;;;2.07;0.87;;;12.10;99.90;;;;;;5074277;28;20420;-76
2022/12/28 10:54:51;;;;;;;1.63;0.80;;;12.00;99.90;;;;;;5073234;28;20809;-75
2022/12/28 10:57:18;;;;;;;1.00;0.60;;;12.00;99.90;;;;;;5074282;28;20423;-76
2022/12/28 10:59:45;;;;;;;1.20;0.60;;;11.80;99.90;;;;;;5056479;28;20274;-75
2022/12/28 11:02:31;;;;;;;1.10;0.67;;;11.60;99.90;;;;;;5074306;28;20401;-76
2022/12/28 11:05:02;;;;;;;1.10;0.70;;;11.70;99.90;;;;;;5074166;28;20456;-76
2022/12/28 11:07:32;;;;;;;1.90;0.90;;;11.60;99.90;;;;;;5074298;28;20435;-75
2022/12/28 11:10:14;;;;;;;1.30;0.83;;;11.50;99.90;;;;;;5056088;28;20782;-75
2022/12/28 11:12:44;;;;;;;1.20;0.80;;;11.50;99.90;;;;;;5073794;28;20429;-76
2022/12/28 11:15:14;;;;;;;1.47;0.77;;;11.40;99.90;;;;;;5073611;28;20429;-75
2022/12/28 11:17:40;;;;;;;2.00;1.10;;;11.30;99.90;;;;;;5073831;28;20415;-76
2022/12/28 11:20:15;;;;;;;1.50;1.10;;;11.30;99.90;;;;;;5073201;28;20913;-76
2022/12/28 11:22:40;;;;;;;1.93;0.93;;;11.30;99.90;;;;;;5071915;28;20463;-75
2022/12/28 11:25:06;;;;;;;2.07;1.80;;;11.40;99.90;;;;;;5055291;28;20453;-75
2022/12/28 11:27:33;;;;;;;4.40;2.90;;;11.30;99.90;;;;;;5056716;28;20178;-75
2022/12/28 11:29:59;;;;;;;6.73;2.10;;;11.50;99.90;;;;;;5053035;28;20424;-75
2022/12/28 11:32:48;;;;;;;4.27;1.87;;;11.60;99.90;;;;;;5068865;28;20931;-75
2022/12/28 11:35:21;;;;;;;1.50;1.30;;;11.60;99.90;;;;;;5055171;28;20194;-76
2022/12/28 11:37:52;;;;;;;3.57;1.47;;;11.70;99.90;;;;;;5048954;28;20424;-75
2022/12/28 11:40:36;;;;;;;1.50;1.23;;;11.60;99.90;;;;;;5055230;28;20904;-75
2022/12/28 11:43:01;;;;;;;2.27;1.30;;;11.70;99.90;;;;;;5070806;28;20499;-76
2022/12/28 11:45:51;;;;;;;1.40;1.10;;;11.60;99.90;;;;;;5072869;28;20432;-75
2022/12/28 11:48:41;;;;;;;1.60;0.90;;;11.50;99.90;;;;;;5070649;28;20178;-75
2022/12/28 11:51:36;;;;;;;1.53;0.90;;;11.40;99.90;;;;;;5069833;28;20424;-75
2022/12/28 11:54:04;;;;;;;3.23;1.10;;;11.30;99.90;;;;;;5050447;28;20444;-74
2022/12/28 11:56:42;;;;;;;2.17;1.40;;;11.30;99.90;;;;;;5072951;28;20432;-75
2022/12/28 11:59:21;;;;;;;1.97;1.10;;;11.20;99.90;;;;;;5073037;28;20408;-74
2022/12/28 12:01:49;;;;;;;3.30;1.20;;;11.30;99.90;;;;;;5072898;28;20404;-74
2022/12/28 12:04:18;;;;;;;1.63;1.10;;;11.30;99.90;;;;;;5053173;28;20491;-75
2022/12/28 12:06:44;;;;;;;1.87;1.10;;;11.40;99.90;;;;;;5049871;28;20423;-75
2022/12/28 12:09:28;;;;;;;1.73;1.20;;;11.40;99.90;;;;;;5072803;28;20408;-75
2022/12/28 12:11:58;;;;;;;2.20;1.30;;;11.50;99.90;;;;;;5071757;28;20790;-76
2022/12/28 12:14:31;;;;;;;1.77;0.87;;;11.60;99.90;;;;;;5047004;28;20481;-75
2022/12/28 12:17:03;;;;;;;1.20;0.77;;;11.60;99.90;;;;;;5070051;28;20424;-75
2022/12/28 12:19:34;;;;;;;2.50;1.00;;;11.70;99.90;;;;;;5072608;28;20853;-75
2022/12/28 12:22:14;;;;;;;1.30;0.80;;;11.50;99.90;;;;;;5070905;28;20443;-75
2022/12/28 12:24:47;;;;;;;1.80;1.60;;;11.60;99.90;;;;;;5071986;28;20456;-75
2022/12/28 12:27:18;;;;;;;1.43;1.00;;;11.50;99.90;;;;;;5072689;28;20427;-75
2022/12/28 12:29:50;;;;;;;1.77;0.80;;;11.50;99.90;;;;;;5054604;28;20503;-75
2022/12/28 12:32:59;;;;;;;1.20;0.70;;;11.50;99.90;;;;;;5070609;28;20442;-75
2022/12/28 12:35:27;;;;;;;1.40;1.00;;;11.50;99.90;;;;;;5059833;28;20456;-75
2022/12/28 12:38:20;;;;;;;1.50;1.03;;;11.50;99.90;;;;;;5053443;28;20436;-75
2022/12/28 12:41:14;;;;;;;3.43;1.00;;;11.50;99.90;;;;;;5057494;28;20520;-75
2022/12/28 12:43:45;;;;;;;4.03;2.13;;;11.50;99.90;;;;;;5070154;28;20460;-75
2022/12/28 12:46:29;;;;;;;1.37;0.80;;;11.60;99.90;;;;;;5070770;28;20808;-75
2022/12/28 12:49:26;;;;;;;3.30;1.10;;;11.50;99.90;;;;;;5055485;28;20486;-75
2022/12/28 12:52:21;;;;;;;1.50;0.90;;;11.50;99.90;;;;;;5055128;28;20786;-75
2022/12/28 12:55:09;;;;;;;1.47;0.97;;;11.60;99.90;;;;;;5065793;28;20487;-74
2022/12/28 12:57:38;;;;;;;2.43;1.13;;;11.50;99.90;;;;;;5064515;28;20430;-74
2022/12/28 13:00:17;;;;;;;2.60;1.50;;;11.50;99.90;;;;;;5071254;28;20470;-74
2022/12/28 13:03:01;;;;;;;2.00;1.00;;;11.50;99.90;;;;;;5071674;28;20952;-75
2022/12/28 13:05:28;;;;;;;1.33;1.03;;;11.50;99.90;;;;;;5070370;28;20458;-75
2022/12/28 13:07:59;;;;;;;1.77;0.90;;;11.50;99.90;;;;;;5053929;28;20440;-75
2022/12/28 13:10:39;;;;;;;1.33;0.77;;;11.40;99.90;;;;;;5053067;28;20424;-75
2022/12/28 13:13:05;;;;;;;1.30;0.90;;;11.40;99.90;;;;;;5054024;28;20425;-75
2022/12/28 13:15:31;;;;;;;2.13;0.80;;;11.40;99.90;;;;;;5051551;28;20452;-75
2022/12/28 13:18:05;;;;;;;1.17;0.70;;;11.60;99.90;;;;;;5040981;28;20710;-75
2022/12/28 13:20:31;;;;;;;3.97;1.40;;;11.60;99.90;;;;;;5071945;28;20458;-74
2022/12/28 13:22:57;;;;;;;2.53;0.60;;;11.50;99.90;;;;;;5071730;28;20429;-75
2022/12/28 13:25:25;;;;;;;1.20;0.73;;;11.60;99.90;;;;;;5071536;28;20456;-75
2022/12/28 13:27:50;;;;;;;1.97;1.10;;;11.60;99.90;;;;;;5053197;28;20575;-75
2022/12/28 13:30:18;;;;;;;2.73;1.20;;;11.60;99.90;;;;;;5070982;28;20428;-75
2022/12/28 13:32:55;;;;;;;1.73;1.10;;;11.70;99.90;;;;;;5053644;28;20228;-74
2022/12/28 13:35:30;;;;;;;4.83;1.20;;;11.60;99.90;;;;;;5071459;28;20416;-74